createdAt,value
2023-04-29T00:00:16.307Z,68.27
2023-04-29T00:05:54.005Z,68.41
2023-04-29T00:11:19.937Z,68.48
2023-04-29T00:16:44.881Z,68.52
2023-04-29T00:22:09.440Z,68.66
2023-04-29T00:27:33.478Z,68.89
2023-04-29T00:32:58.074Z,68.83
2023-04-29T00:38:22.260Z,68.95
2023-04-29T00:43:46.971Z,69.13
2023-04-29T00:49:13.891Z,68.87
2023-04-29T00:54:40.245Z,68.91
2023-04-29T01:00:05.925Z,68.82
2023-04-29T01:05:29.907Z,68.71
2023-04-29T01:11:11.616Z,68.70
2023-04-29T01:16:45.561Z,68.71
2023-04-29T01:22:12.297Z,69.14
2023-04-29T01:27:58.176Z,69.60
2023-04-29T01:33:41.392Z,69.87
2023-04-29T01:39:12.129Z,70.42
2023-04-29T01:44:38.954Z,70.66
2023-04-29T01:50:04.814Z,71.17
2023-04-29T01:55:30.249Z,71.28
2023-04-29T02:01:18.833Z,71.28
2023-04-29T02:06:43.694Z,71.14
2023-04-29T02:12:08.208Z,71.14
2023-04-29T02:17:34.472Z,71.13
2023-04-29T02:23:00.576Z,71.38
2023-04-29T02:28:25.586Z,71.31
2023-04-29T02:33:50.056Z,71.15
2023-04-29T02:39:14.608Z,71.00
2023-04-29T02:44:38.993Z,70.62
2023-04-29T02:50:03.214Z,70.52
2023-04-29T02:55:30.234Z,70.45
2023-04-29T03:00:59.107Z,70.65
2023-04-29T03:06:23.581Z,70.63
2023-04-29T03:11:48.092Z,70.54
2023-04-29T03:17:12.570Z,70.51
2023-04-29T03:22:37.405Z,70.56
2023-04-29T03:28:03.594Z,70.46
2023-04-29T03:33:28.701Z,70.46
2023-04-29T03:38:52.625Z,70.73
2023-04-29T03:44:16.721Z,71.30
2023-04-29T03:49:41.614Z,71.63
2023-04-29T03:55:07.484Z,71.98
2023-04-29T04:00:33.297Z,72.16
2023-04-29T04:05:58.809Z,72.43
2023-04-29T04:11:23.304Z,72.62
2023-04-29T04:17:01.781Z,72.64
2023-04-29T04:22:26.877Z,73.54
2023-04-29T04:28:06.731Z,73.77
2023-04-29T04:33:51.574Z,73.87
2023-04-29T04:39:16.265Z,73.69
2023-04-29T04:44:41.024Z,73.68
2023-04-29T04:50:09.693Z,73.76
2023-04-29T04:55:34.824Z,73.95
2023-04-29T05:01:01.239Z,74.11
2023-04-29T05:06:26.658Z,74.38
2023-04-29T05:11:52.701Z,74.74
2023-04-29T05:17:17.939Z,75.19
2023-04-29T05:22:42.282Z,75.80
2023-04-29T05:28:07.903Z,76.43
2023-04-29T05:33:33.685Z,76.95
2023-04-29T05:38:59.060Z,77.09
2023-04-29T05:44:24.240Z,77.32
2023-04-29T05:49:49.803Z,77.74
2023-04-29T05:55:14.498Z,78.33
2023-04-29T06:00:39.919Z,78.93
2023-04-29T06:06:09.242Z,79.54
2023-04-29T06:11:45.544Z,80.00
2023-04-29T06:17:15.070Z,80.05
2023-04-29T06:22:43.291Z,79.91
2023-04-29T06:28:09.996Z,79.73
2023-04-29T06:33:36.573Z,79.69
2023-04-29T06:39:03.622Z,79.55
2023-04-29T06:44:51.461Z,79.34
2023-04-29T06:50:39.112Z,78.83
2023-04-29T06:56:07.367Z,78.17
2023-04-29T07:01:33.401Z,78.04
2023-04-29T07:07:00.397Z,77.02
2023-04-29T07:12:26.653Z,77.05
2023-04-29T07:17:55.985Z,76.82
2023-04-29T07:23:24.061Z,76.83
2023-04-29T07:28:50.431Z,76.65
2023-04-29T07:34:19.796Z,76.29
2023-04-29T07:39:44.800Z,75.91
2023-04-29T07:45:13.623Z,75.90
2023-04-29T07:50:41.466Z,76.16
2023-04-29T07:56:09.088Z,77.14
2023-04-29T08:01:33.825Z,78.56
2023-04-29T08:06:58.358Z,79.71
2023-04-29T08:12:23.000Z,80.55
2023-04-29T08:17:47.849Z,80.56
2023-04-29T08:23:12.438Z,80.39
2023-04-29T08:28:37.057Z,79.89
2023-04-29T08:34:01.871Z,79.18
2023-04-29T08:39:26.528Z,78.62
2023-04-29T08:44:53.556Z,77.80
2023-04-29T08:50:19.067Z,77.55
2023-04-29T08:55:47.127Z,76.89
2023-04-29T09:01:12.071Z,76.73
2023-04-29T09:06:38.539Z,77.28
2023-04-29T09:12:47.512Z,77.85
2023-04-29T09:18:58.830Z,79.29
2023-04-29T09:24:28.145Z,79.42
2023-04-29T09:37:28.331Z,80.57
2023-04-29T09:42:53.148Z,82.00
2023-04-29T09:48:17.853Z,82.91
2023-04-29T09:53:42.614Z,83.81
2023-04-29T09:59:10.548Z,84.43
2023-04-29T10:04:38.187Z,84.95
2023-04-29T10:10:06.288Z,84.67
2023-04-29T10:15:44.563Z,83.84
2023-04-29T10:21:10.086Z,83.37
2023-04-29T10:26:37.729Z,81.80
2023-04-29T10:32:03.903Z,79.43
2023-04-29T10:37:29.020Z,78.97
2023-04-29T10:42:55.397Z,78.07
2023-04-29T10:48:22.924Z,77.78
2023-04-29T10:54:06.583Z,78.30
2023-04-29T10:59:34.032Z,78.85
2023-04-29T11:05:11.493Z,79.06
2023-04-29T11:10:42.228Z,79.04
2023-04-29T11:16:12.020Z,78.64
2023-04-29T11:21:37.132Z,79.09
2023-04-29T11:27:04.779Z,79.90
2023-04-29T11:32:30.786Z,80.80
2023-04-29T11:37:55.634Z,81.64
2023-04-29T11:43:21.407Z,82.29
2023-04-29T11:48:50.489Z,82.58
2023-04-29T11:54:15.098Z,82.07
2023-04-29T11:59:39.775Z,80.96
2023-04-29T12:05:13.464Z,80.20
2023-04-29T12:10:38.372Z,79.96
2023-04-29T12:16:04.696Z,79.09
2023-04-29T12:21:30.213Z,77.93
2023-04-29T12:26:56.503Z,76.94
2023-04-29T12:32:26.085Z,75.74
2023-04-29T12:37:51.545Z,76.46
2023-04-29T12:43:16.036Z,76.84
2023-04-29T12:48:42.032Z,76.40
2023-04-29T12:54:07.844Z,76.11
2023-04-29T13:00:37.278Z,77.15
2023-04-29T13:06:09.102Z,80.37
2023-04-29T13:11:34.756Z,80.99
2023-04-29T13:16:59.327Z,82.00
2023-04-29T13:22:24.596Z,82.76
2023-04-29T13:27:50.204Z,83.50
2023-04-29T13:33:15.534Z,84.18
2023-04-29T13:38:42.103Z,85.28
2023-04-29T13:44:14.590Z,85.30
2023-04-29T13:50:16.580Z,84.86
2023-04-29T14:01:43.375Z,84.67
2023-04-29T14:06:57.477Z,85.12
2023-04-29T14:12:26.728Z,85.78
2023-04-29T14:17:56.902Z,86.48
2023-04-29T14:23:28.815Z,85.70
2023-04-29T14:28:58.877Z,85.29
2023-04-29T14:34:24.461Z,84.52
2023-04-29T14:39:51.105Z,84.23
2023-04-29T14:45:16.169Z,84.11
2023-04-29T14:50:41.265Z,84.61
2023-04-29T14:56:08.273Z,84.84
2023-04-29T15:01:32.930Z,85.07
2023-04-29T15:06:58.831Z,84.72
2023-04-29T15:12:23.248Z,84.14
2023-04-29T15:17:47.932Z,84.22
2023-04-29T15:23:13.674Z,84.39
2023-04-29T15:28:38.582Z,84.75
2023-04-29T15:34:03.766Z,84.96
2023-04-29T15:46:33.659Z,85.60
2023-04-29T15:51:59.548Z,85.59
2023-04-29T15:57:26.772Z,85.78
2023-04-29T16:02:52.231Z,85.97
2023-04-29T16:08:19.370Z,86.50
2023-04-29T16:13:46.193Z,87.11
2023-04-29T16:19:11.343Z,87.77
2023-04-29T16:24:37.311Z,87.90
2023-04-29T16:30:03.558Z,87.78
2023-04-29T16:35:31.239Z,87.80
2023-04-29T16:40:56.494Z,88.09
2023-04-29T16:46:22.943Z,88.50
2023-04-29T16:51:50.971Z,88.68
2023-04-29T16:57:18.013Z,88.55
2023-04-29T17:02:46.753Z,88.72
2023-04-29T17:08:16.154Z,88.49
2023-04-29T17:13:45.467Z,88.49
2023-04-29T17:19:12.129Z,88.45
2023-04-29T17:24:40.672Z,88.48
2023-04-29T17:30:09.581Z,88.88
2023-04-29T17:35:37.301Z,89.25
2023-04-29T17:41:04.835Z,90.21
2023-04-29T17:46:31.958Z,90.71
2023-04-29T17:52:01.052Z,91.55
2023-04-29T17:57:29.660Z,91.70
2023-04-29T18:02:55.604Z,91.51
2023-04-29T18:08:21.731Z,91.31
2023-04-29T18:13:45.824Z,91.63
2023-04-29T18:19:11.305Z,92.17
2023-04-29T18:24:36.920Z,92.50
2023-04-29T18:30:03.561Z,92.83
2023-04-29T18:35:29.273Z,93.22
2023-04-29T18:40:55.938Z,93.35
2023-04-29T18:46:23.108Z,93.64
2023-04-29T18:51:50.603Z,93.85
2023-04-29T18:57:18.287Z,94.14
2023-04-29T19:02:45.008Z,94.33
2023-04-29T19:08:13.409Z,94.80
2023-04-29T19:13:40.399Z,95.04
2023-04-29T19:19:09.110Z,95.46
2023-04-29T19:24:48.842Z,95.76
2023-04-29T19:30:42.354Z,95.71
2023-04-29T19:43:39.546Z,95.75
2023-04-29T19:49:05.517Z,95.88
2023-04-29T19:54:33.349Z,95.68
2023-04-29T20:00:06.536Z,95.49
2023-04-29T20:05:34.717Z,95.37
2023-04-29T20:11:05.672Z,95.21
2023-04-29T20:16:32.903Z,95.19
2023-04-29T20:22:00.125Z,95.14
2023-04-29T20:27:27.821Z,95.10
2023-04-29T20:32:53.631Z,95.09
2023-04-29T20:38:19.212Z,95.00
2023-04-29T20:43:44.475Z,94.97
2023-04-29T20:49:12.830Z,95.31
2023-04-29T20:54:37.396Z,95.19
2023-04-29T21:00:06.702Z,95.06
2023-04-29T21:05:33.587Z,95.16
2023-04-29T21:11:00.479Z,95.28
2023-04-29T21:16:27.496Z,95.14
2023-04-29T21:21:53.348Z,94.95
2023-04-29T21:27:20.778Z,94.79
2023-04-29T21:32:45.925Z,94.68
2023-04-29T21:38:11.021Z,94.68
2023-04-29T21:43:35.228Z,94.70
2023-04-29T21:49:01.398Z,94.57
2023-04-29T21:54:26.047Z,94.56
2023-04-29T21:59:51.378Z,94.44
2023-04-29T22:05:15.953Z,94.20
2023-04-29T22:10:41.864Z,94.10
2023-04-29T22:16:07.758Z,93.89
2023-04-29T22:21:33.940Z,93.64
2023-04-29T22:26:58.264Z,93.62
2023-04-29T22:32:23.558Z,93.53
2023-04-29T22:37:47.871Z,93.48
2023-04-29T22:43:13.266Z,93.48
2023-04-29T22:48:37.679Z,93.49
2023-04-29T22:54:02.086Z,93.46
2023-04-29T22:59:26.472Z,93.45
2023-04-29T23:04:50.290Z,93.41
2023-04-29T23:10:14.332Z,93.32
2023-04-29T23:15:39.563Z,93.36
2023-04-29T23:21:05.454Z,93.38
2023-04-29T23:26:31.652Z,93.36
2023-04-29T23:31:56.008Z,93.40
2023-04-29T23:37:24.499Z,93.46
2023-04-29T23:42:49.973Z,93.24
2023-04-29T23:48:16.554Z,93.27
2023-04-29T23:53:41.185Z,93.25
2023-04-29T23:59:06.845Z,93.31
